createdAt,value
2019-05-18T00:01:16.352Z,8.90
2019-05-18T00:03:44.757Z,8.90
2019-05-18T00:06:13.152Z,8.80
2019-05-18T00:08:41.545Z,8.80
2019-05-18T00:11:11.313Z,8.70
2019-05-18T00:13:39.712Z,8.70
2019-05-18T00:16:08.116Z,8.70
2019-05-18T00:18:36.526Z,8.70
2019-05-18T00:21:05.798Z,8.70
2019-05-18T00:23:34.205Z,8.70
2019-05-18T00:26:02.602Z,8.80
2019-05-18T00:28:30.989Z,8.80
2019-05-18T00:30:59.389Z,8.90
2019-05-18T00:33:28.046Z,8.90
2019-05-18T00:35:56.484Z,9.00
2019-05-18T00:38:24.884Z,9.00
2019-05-18T00:40:53.293Z,9.00
2019-05-18T00:43:21.693Z,9.10
2019-05-18T00:45:50.081Z,9.10
2019-05-18T00:48:18.482Z,9.10
2019-05-18T00:50:46.889Z,9.10
2019-05-18T00:53:15.280Z,9.10
2019-05-18T00:55:43.682Z,9.10
2019-05-18T00:58:12.082Z,9.10
2019-05-18T01:00:40.492Z,9.10
2019-05-18T01:03:08.886Z,9.10
2019-05-18T01:05:38.245Z,9.10
2019-05-18T01:08:07.289Z,9.10
2019-05-18T01:10:35.702Z,9.20
2019-05-18T01:13:04.089Z,9.20
2019-05-18T01:15:32.497Z,9.20
2019-05-18T01:18:02.297Z,9.20
2019-05-18T01:20:31.014Z,9.30
2019-05-18T01:22:59.417Z,9.30
2019-05-18T01:25:27.900Z,9.30
2019-05-18T01:27:56.297Z,9.30
2019-05-18T01:30:26.325Z,9.30
2019-05-18T01:32:54.718Z,9.30
2019-05-18T01:35:23.162Z,9.30
2019-05-18T01:37:51.553Z,9.20
2019-05-18T01:40:21.679Z,9.20
2019-05-18T01:42:50.214Z,9.30
2019-05-18T01:45:19.386Z,9.20
2019-05-18T01:47:47.789Z,9.20
2019-05-18T01:50:17.613Z,9.20
2019-05-18T01:52:46.005Z,9.30
2019-05-18T01:55:14.545Z,9.20
2019-05-18T01:57:42.945Z,9.20
2019-05-18T02:00:12.982Z,9.20
2019-05-18T02:02:41.406Z,9.20
2019-05-18T02:05:09.946Z,9.30
2019-05-18T02:07:38.337Z,9.40
2019-05-18T02:10:08.771Z,9.40
2019-05-18T02:12:37.170Z,9.40
2019-05-18T02:15:07.606Z,9.50
2019-05-18T02:17:36.149Z,9.50
2019-05-18T02:20:07.276Z,9.50
2019-05-18T02:22:35.689Z,9.40
2019-05-18T02:25:08.949Z,9.30
2019-05-18T02:27:37.353Z,9.30
2019-05-18T02:30:08.495Z,9.30
2019-05-18T02:32:36.899Z,9.30
2019-05-18T02:35:07.024Z,9.30
2019-05-18T02:37:35.427Z,9.20
2019-05-18T02:40:06.866Z,9.20
2019-05-18T02:42:35.328Z,9.20
2019-05-18T02:45:05.976Z,9.20
2019-05-18T02:47:34.389Z,9.10
2019-05-18T02:50:03.137Z,9.10
2019-05-18T02:52:31.866Z,9.00
2019-05-18T02:55:00.284Z,8.90
2019-05-18T02:57:28.666Z,8.90
2019-05-18T02:59:57.132Z,9.00
2019-05-18T03:02:25.542Z,9.00
2019-05-18T03:04:53.934Z,9.00
2019-05-18T03:07:22.332Z,9.10
2019-05-18T03:09:50.801Z,9.00
2019-05-18T03:12:19.193Z,9.00
2019-05-18T03:14:47.596Z,8.90
2019-05-18T03:17:15.995Z,8.90
2019-05-18T03:19:44.384Z,8.90
2019-05-18T03:22:12.873Z,9.00
2019-05-18T03:24:41.368Z,9.00
2019-05-18T03:27:09.818Z,9.00
2019-05-18T03:29:38.221Z,9.10
2019-05-18T03:32:06.955Z,9.10
2019-05-18T03:34:35.346Z,9.10
2019-05-18T03:37:03.754Z,9.20
2019-05-18T03:39:32.161Z,9.20
2019-05-18T03:42:00.562Z,9.20
2019-05-18T03:44:28.966Z,9.30
2019-05-18T03:46:57.575Z,9.30
2019-05-18T03:49:27.570Z,9.30
2019-05-18T03:51:56.088Z,9.30
2019-05-18T03:54:24.504Z,9.40
2019-05-18T03:56:52.907Z,9.40
2019-05-18T03:59:21.313Z,9.40
2019-05-18T04:01:49.722Z,9.50
2019-05-18T04:04:18.666Z,9.50
2019-05-18T04:06:47.806Z,9.60
2019-05-18T04:09:16.208Z,9.70
2019-05-18T04:11:44.610Z,9.70
2019-05-18T04:14:13.009Z,9.60
2019-05-18T04:16:41.440Z,9.60
2019-05-18T04:19:09.846Z,9.60
2019-05-18T04:21:38.242Z,9.60
2019-05-18T04:24:06.718Z,9.60
2019-05-18T04:26:35.125Z,9.60
2019-05-18T04:29:03.586Z,9.70
2019-05-18T04:31:32.647Z,9.70
2019-05-18T04:34:01.658Z,9.70
2019-05-18T04:36:30.066Z,9.70
2019-05-18T04:38:58.466Z,9.60
2019-05-18T04:41:26.867Z,9.60
2019-05-18T04:43:55.262Z,9.60
2019-05-18T04:46:23.658Z,9.70
2019-05-18T04:48:52.065Z,9.70
2019-05-18T04:51:20.555Z,9.80
2019-05-18T04:53:48.954Z,9.80
2019-05-18T04:56:17.347Z,9.90
2019-05-18T04:58:45.753Z,10.00
2019-05-18T05:01:14.162Z,10.10
2019-05-18T05:03:42.567Z,10.20
2019-05-18T05:06:10.965Z,10.20
2019-05-18T05:08:39.366Z,10.10
2019-05-18T05:11:07.777Z,10.00
2019-05-18T05:13:36.181Z,10.10
2019-05-18T05:16:04.665Z,10.20
2019-05-18T05:18:33.081Z,10.30
2019-05-18T05:21:01.496Z,10.40
2019-05-18T05:23:29.900Z,10.50
2019-05-18T05:25:58.294Z,10.60
2019-05-18T05:28:26.689Z,10.60
2019-05-18T05:30:55.102Z,10.70
2019-05-18T05:33:23.551Z,10.70
2019-05-18T05:35:51.970Z,10.70
2019-05-18T05:38:20.375Z,10.80
2019-05-18T05:40:49.560Z,10.80
2019-05-18T05:43:17.968Z,10.90
2019-05-18T05:45:46.363Z,11.00
2019-05-18T05:48:14.781Z,11.00
2019-05-18T05:50:44.158Z,11.00
2019-05-18T05:53:12.568Z,11.00
2019-05-18T05:55:40.966Z,11.00
2019-05-18T05:58:09.369Z,10.80
2019-05-18T06:00:37.780Z,10.70
2019-05-18T06:03:06.192Z,10.70
2019-05-18T06:05:34.600Z,10.70
2019-05-18T06:08:03.005Z,10.70
2019-05-18T06:10:31.396Z,10.70
2019-05-18T06:12:59.797Z,10.60
2019-05-18T06:15:28.204Z,10.60
2019-05-18T06:17:56.619Z,10.70
2019-05-18T06:20:25.027Z,10.80
2019-05-18T06:22:53.421Z,10.90
2019-05-18T06:25:21.854Z,10.90
2019-05-18T06:27:50.230Z,10.90
2019-05-18T06:30:19.363Z,10.90
2019-05-18T06:32:47.777Z,11.00
2019-05-18T06:35:16.173Z,10.90
2019-05-18T06:37:44.581Z,11.00
2019-05-18T06:40:13.124Z,11.10
2019-05-18T06:42:42.930Z,11.10
2019-05-18T06:45:13.365Z,11.10
2019-05-18T06:47:41.762Z,11.10
2019-05-18T06:50:12.783Z,11.20
2019-05-18T06:52:41.455Z,11.20
2019-05-18T06:55:10.693Z,11.30
2019-05-18T06:57:40.173Z,11.30
2019-05-18T07:00:11.698Z,11.30
2019-05-18T07:02:40.346Z,11.30
2019-05-18T07:05:09.773Z,11.30
2019-05-18T07:07:38.176Z,11.30
2019-05-18T07:10:07.914Z,11.40
2019-05-18T07:12:36.317Z,11.40
2019-05-18T07:15:08.117Z,11.50
2019-05-18T07:17:36.517Z,11.80
2019-05-18T07:20:06.520Z,12.40
2019-05-18T07:22:34.923Z,12.70
2019-05-18T07:25:04.994Z,12.90
2019-05-18T07:27:33.384Z,13.00
2019-05-18T07:30:01.884Z,13.10
2019-05-18T07:32:30.268Z,13.30
2019-05-18T07:34:58.677Z,13.50
2019-05-18T07:37:27.103Z,13.70
2019-05-18T07:39:56.166Z,14.00
2019-05-18T07:42:24.575Z,14.40
2019-05-18T07:44:52.973Z,15.10
2019-05-18T07:47:21.369Z,15.60
2019-05-18T07:49:49.777Z,16.20
2019-05-18T07:52:18.178Z,16.60
2019-05-18T07:54:46.578Z,16.90
2019-05-18T07:57:15.025Z,17.40
2019-05-18T07:59:43.464Z,17.70
2019-05-18T08:02:12.039Z,17.70
2019-05-18T08:04:40.441Z,17.60
2019-05-18T08:07:08.854Z,17.50
2019-05-18T08:09:37.271Z,17.40
2019-05-18T08:12:05.670Z,17.50
2019-05-18T08:14:34.074Z,17.50
2019-05-18T08:17:02.559Z,18.10
2019-05-18T08:19:31.018Z,18.60
2019-05-18T08:21:59.413Z,19.00
2019-05-18T08:24:27.850Z,19.30
2019-05-18T08:26:56.409Z,19.70
2019-05-18T08:29:24.806Z,19.80
2019-05-18T08:31:53.409Z,19.70
2019-05-18T08:34:21.793Z,19.80
2019-05-18T08:36:50.194Z,20.10
2019-05-18T08:39:18.609Z,20.70
2019-05-18T08:41:48.855Z,21.90
2019-05-18T08:44:17.129Z,23.00
2019-05-18T08:46:45.536Z,23.20
2019-05-18T08:49:13.942Z,23.60
2019-05-18T08:51:42.345Z,24.60
2019-05-18T08:54:10.808Z,25.40
2019-05-18T08:56:39.213Z,26.70
2019-05-18T08:59:07.674Z,27.30
2019-05-18T09:01:36.076Z,26.00
2019-05-18T09:04:04.540Z,25.00
2019-05-18T09:06:33.202Z,24.60
2019-05-18T09:09:01.995Z,24.00
2019-05-18T09:11:30.440Z,23.50
2019-05-18T09:13:58.832Z,23.20
2019-05-18T09:16:27.248Z,22.80
2019-05-18T09:18:55.640Z,21.90
2019-05-18T09:21:24.031Z,21.60
2019-05-18T09:23:52.433Z,21.30
2019-05-18T09:26:20.832Z,21.10
2019-05-18T09:28:49.229Z,21.10
2019-05-18T09:31:17.637Z,21.60
2019-05-18T09:33:46.050Z,22.30
2019-05-18T09:36:14.442Z,22.90
2019-05-18T09:38:42.849Z,23.90
2019-05-18T09:41:11.249Z,25.70
2019-05-18T09:43:39.655Z,27.50
2019-05-18T09:46:08.058Z,27.90
2019-05-18T09:48:36.730Z,28.50
2019-05-18T09:51:05.137Z,27.70
2019-05-18T09:53:33.555Z,27.70
2019-05-18T09:56:01.985Z,27.80
2019-05-18T09:58:30.518Z,28.00
2019-05-18T10:00:58.994Z,27.50
2019-05-18T10:03:27.477Z,27.50
2019-05-18T10:05:55.878Z,27.20
2019-05-18T10:08:24.281Z,26.40
2019-05-18T10:10:52.678Z,25.60
2019-05-18T10:13:21.097Z,25.30
2019-05-18T10:15:49.501Z,25.00
2019-05-18T10:18:17.910Z,24.70
2019-05-18T10:20:47.185Z,24.70
2019-05-18T10:23:15.582Z,25.00
2019-05-18T10:25:43.986Z,25.50
2019-05-18T10:28:12.411Z,26.30
2019-05-18T10:30:40.807Z,28.00
2019-05-18T10:33:09.209Z,30.30
2019-05-18T10:35:37.622Z,32.20
2019-05-18T10:38:06.204Z,33.20
2019-05-18T10:40:34.581Z,33.20
2019-05-18T10:43:02.991Z,32.90
2019-05-18T10:45:31.404Z,33.00
2019-05-18T10:47:59.846Z,33.60
2019-05-18T10:50:28.304Z,33.80
2019-05-18T10:52:56.733Z,33.90
2019-05-18T10:55:25.218Z,32.50
2019-05-18T10:57:53.663Z,31.60
2019-05-18T11:00:23.020Z,31.10
2019-05-18T11:02:51.435Z,31.00
2019-05-18T11:05:20.158Z,31.20
2019-05-18T11:07:48.567Z,31.30
2019-05-18T11:10:19.606Z,31.50
2019-05-18T11:12:48.068Z,31.40
2019-05-18T11:15:18.933Z,32.40
2019-05-18T11:17:47.349Z,33.70
2019-05-18T11:20:17.793Z,34.50
2019-05-18T11:22:46.195Z,35.10
2019-05-18T11:25:15.843Z,35.10
2019-05-18T11:27:45.002Z,35.40
2019-05-18T11:30:14.949Z,35.90
2019-05-18T11:32:43.362Z,36.10
2019-05-18T11:35:12.806Z,36.80
2019-05-18T11:37:41.202Z,37.30
2019-05-18T11:40:12.216Z,37.90
2019-05-18T11:42:40.626Z,38.40
2019-05-18T11:45:12.140Z,38.60
2019-05-18T11:47:41.162Z,38.90
2019-05-18T11:50:11.770Z,39.10
2019-05-18T11:52:40.213Z,39.40
2019-05-18T11:55:10.242Z,39.70
2019-05-18T11:57:38.648Z,39.60
2019-05-18T12:00:11.325Z,39.30
2019-05-18T12:02:39.719Z,39.40
2019-05-18T12:05:09.954Z,39.60
2019-05-18T12:07:38.375Z,40.10
2019-05-18T12:10:09.973Z,40.40
2019-05-18T12:12:38.416Z,40.70
2019-05-18T12:15:08.860Z,40.90
2019-05-18T12:17:37.424Z,41.00
2019-05-18T12:20:07.351Z,40.80
2019-05-18T12:22:36.056Z,40.70
2019-05-18T12:25:07.310Z,40.80
2019-05-18T12:27:35.723Z,40.80
2019-05-18T12:30:07.189Z,39.80
2019-05-18T12:32:36.049Z,38.00
2019-05-18T12:35:07.181Z,36.20
2019-05-18T12:37:35.601Z,34.50
2019-05-18T12:40:06.834Z,33.30
2019-05-18T12:42:35.241Z,32.50
2019-05-18T12:45:03.774Z,32.00
2019-05-18T12:47:32.165Z,31.80
2019-05-18T12:50:00.558Z,31.70
2019-05-18T12:52:28.963Z,31.90
2019-05-18T12:54:57.387Z,33.80
2019-05-18T12:57:25.774Z,35.60
2019-05-18T12:59:54.242Z,36.70
2019-05-18T13:02:22.645Z,36.40
2019-05-18T13:04:51.049Z,35.70
2019-05-18T13:07:19.593Z,34.90
2019-05-18T13:09:47.989Z,34.80
2019-05-18T13:12:16.382Z,34.70
2019-05-18T13:14:44.777Z,34.30
2019-05-18T13:17:13.164Z,33.70
2019-05-18T13:19:41.558Z,32.70
2019-05-18T13:22:09.947Z,31.60
2019-05-18T13:24:45.226Z,30.50
2019-05-18T13:27:08.500Z,29.70
2019-05-18T13:29:36.903Z,28.80
2019-05-18T13:32:05.309Z,27.90
2019-05-18T13:34:33.701Z,27.20
2019-05-18T13:37:02.974Z,26.60
2019-05-18T13:39:31.362Z,26.00
2019-05-18T13:41:59.818Z,25.30
2019-05-18T13:44:28.210Z,24.60
2019-05-18T13:46:56.606Z,23.90
2019-05-18T13:49:25.003Z,23.30
2019-05-18T13:51:53.409Z,22.80
2019-05-18T13:54:21.806Z,22.20
2019-05-18T13:56:50.217Z,21.60
2019-05-18T13:59:18.617Z,21.00
2019-05-18T14:01:47.023Z,20.60
2019-05-18T14:04:15.430Z,20.30
2019-05-18T14:06:43.856Z,20.20
2019-05-18T14:09:12.248Z,20.10
2019-05-18T14:11:40.663Z,20.20
2019-05-18T14:14:09.055Z,20.30
2019-05-18T14:16:37.556Z,20.60
2019-05-18T14:19:05.960Z,20.90
2019-05-18T14:21:34.351Z,21.30
2019-05-18T14:24:02.750Z,21.50
2019-05-18T14:26:31.227Z,21.80
2019-05-18T14:28:59.633Z,22.10
2019-05-18T14:31:28.035Z,22.40
2019-05-18T14:33:56.453Z,23.00
2019-05-18T14:36:24.860Z,23.40
2019-05-18T14:38:56.858Z,23.80
2019-05-18T14:41:23.382Z,24.00
2019-05-18T14:43:51.859Z,24.30
2019-05-18T14:46:20.346Z,24.30
2019-05-18T14:48:48.735Z,24.40
2019-05-18T14:51:17.158Z,24.30
2019-05-18T14:53:45.549Z,24.20
2019-05-18T14:56:13.949Z,24.20
2019-05-18T14:58:42.362Z,24.00
2019-05-18T15:01:10.826Z,23.90
2019-05-18T15:03:39.219Z,23.80
2019-05-18T15:06:07.658Z,23.80
2019-05-18T15:08:36.072Z,24.10
2019-05-18T15:11:04.518Z,24.40
2019-05-18T15:13:33.022Z,24.80
2019-05-18T15:16:01.580Z,25.60
2019-05-18T15:18:30.004Z,26.30
2019-05-18T15:20:58.458Z,26.60
2019-05-18T15:23:26.866Z,26.90
2019-05-18T15:25:55.277Z,26.70
2019-05-18T15:28:23.712Z,26.40
2019-05-18T15:30:52.103Z,26.00
2019-05-18T15:33:20.501Z,25.80
2019-05-18T15:35:48.897Z,25.90
2019-05-18T15:38:17.305Z,26.30
2019-05-18T15:40:45.700Z,26.70
2019-05-18T15:43:14.102Z,26.80
2019-05-18T15:45:42.507Z,26.60
2019-05-18T15:48:10.903Z,26.20
2019-05-18T15:50:40.472Z,25.60
2019-05-18T15:53:08.868Z,25.10
2019-05-18T15:55:37.355Z,24.70
2019-05-18T15:58:05.749Z,24.30
2019-05-18T16:00:34.281Z,24.00
2019-05-18T16:03:02.717Z,23.90
2019-05-18T16:05:31.114Z,23.70
2019-05-18T16:07:59.522Z,23.50
2019-05-18T16:10:28.421Z,23.40
2019-05-18T16:12:56.955Z,23.20
2019-05-18T16:15:25.388Z,23.10
2019-05-18T16:17:53.801Z,23.00
2019-05-18T16:20:22.269Z,22.90
2019-05-18T16:22:50.663Z,22.90
2019-05-18T16:25:20.126Z,22.80
2019-05-18T16:27:48.611Z,22.80
2019-05-18T16:30:17.855Z,22.80
2019-05-18T16:32:46.254Z,22.80
2019-05-18T16:35:14.726Z,22.70
2019-05-18T16:37:43.134Z,22.80
2019-05-18T16:40:12.364Z,23.00
2019-05-18T16:42:40.759Z,23.20
2019-05-18T16:45:11.067Z,23.30
2019-05-18T16:47:39.481Z,23.20
2019-05-18T16:50:10.763Z,23.10
2019-05-18T16:52:39.266Z,23.00
2019-05-18T16:55:09.642Z,22.90
2019-05-18T16:57:38.094Z,22.80
2019-05-18T17:00:15.421Z,22.70
2019-05-18T17:02:41.782Z,22.60
2019-05-18T17:05:11.062Z,22.40
2019-05-18T17:07:39.505Z,22.20
2019-05-18T17:10:09.834Z,22.10
2019-05-18T17:12:38.294Z,22.00
2019-05-18T17:15:09.319Z,21.90
2019-05-18T17:17:37.921Z,21.70
2019-05-18T17:20:08.446Z,21.60
2019-05-18T17:22:36.847Z,21.50
2019-05-18T17:25:06.896Z,21.40
2019-05-18T17:27:35.285Z,21.30
2019-05-18T17:30:06.513Z,21.20
2019-05-18T17:32:34.928Z,21.10
2019-05-18T17:35:05.618Z,21.10
2019-05-18T17:37:34.029Z,21.00
2019-05-18T17:40:03.827Z,20.90
2019-05-18T17:42:32.274Z,20.90
2019-05-18T17:45:00.860Z,20.80
2019-05-18T17:47:29.656Z,20.70
2019-05-18T17:49:58.654Z,20.60
2019-05-18T17:52:27.045Z,20.40
2019-05-18T17:54:57.317Z,20.30
2019-05-18T17:57:25.552Z,20.10
2019-05-18T17:59:53.957Z,20.00
2019-05-18T18:02:22.354Z,19.80
2019-05-18T18:04:54.100Z,19.60
2019-05-18T18:07:20.902Z,19.40
2019-05-18T18:09:49.281Z,19.20
2019-05-18T18:12:17.698Z,19.10
2019-05-18T18:14:46.189Z,18.90
2019-05-18T18:17:17.565Z,18.60
2019-05-18T18:19:44.703Z,18.50
2019-05-18T18:22:13.106Z,18.40
2019-05-18T18:24:41.493Z,18.30
2019-05-18T18:27:24.235Z,18.20
2019-05-18T18:29:40.015Z,18.10
2019-05-18T18:32:08.410Z,18.00
2019-05-18T18:34:36.805Z,17.80
2019-05-18T18:37:05.190Z,17.70
2019-05-18T18:39:33.598Z,17.70
2019-05-18T18:42:02.009Z,17.60
2019-05-18T18:44:30.397Z,17.50
2019-05-18T18:46:58.797Z,17.40
2019-05-18T18:49:27.253Z,17.30
2019-05-18T18:51:55.818Z,17.20
2019-05-18T18:54:24.265Z,17.10
2019-05-18T18:56:52.657Z,17.00
2019-05-18T18:59:21.055Z,16.90
2019-05-18T19:01:49.440Z,16.80
2019-05-18T19:04:17.845Z,16.80
2019-05-18T19:06:46.237Z,16.70
2019-05-18T19:09:14.638Z,16.70
2019-05-18T19:11:43.021Z,16.70
2019-05-18T19:14:11.495Z,16.60
2019-05-18T19:16:40.614Z,16.60
2019-05-18T19:19:09.013Z,16.50
2019-05-18T19:21:37.499Z,16.60
2019-05-18T19:24:05.888Z,16.80
2019-05-18T19:26:34.305Z,16.80
2019-05-18T19:29:02.701Z,16.70
2019-05-18T19:31:31.106Z,16.60
2019-05-18T19:33:59.516Z,16.50
2019-05-18T19:36:27.912Z,16.40
2019-05-18T19:38:58.643Z,16.40
2019-05-18T19:41:27.043Z,16.40
2019-05-18T19:43:55.428Z,16.40
2019-05-18T19:46:23.840Z,16.30
2019-05-18T19:48:52.241Z,16.30
2019-05-18T19:51:20.637Z,16.20
2019-05-18T19:53:49.046Z,16.10
2019-05-18T19:56:17.442Z,16.10
2019-05-18T19:58:46.102Z,16.10
2019-05-18T20:01:14.499Z,16.00
2019-05-18T20:03:42.923Z,16.00
2019-05-18T20:06:11.321Z,15.90
2019-05-18T20:08:39.825Z,15.90
2019-05-18T20:11:08.201Z,15.90
2019-05-18T20:13:38.181Z,15.90
2019-05-18T20:16:06.580Z,15.80
2019-05-18T20:18:34.986Z,15.70
2019-05-18T20:21:03.440Z,15.70
2019-05-18T20:23:31.883Z,15.50
2019-05-18T20:26:00.275Z,15.40
2019-05-18T20:28:28.681Z,15.30
2019-05-18T20:30:57.076Z,15.20
2019-05-18T20:33:25.490Z,15.10
2019-05-18T20:35:53.878Z,15.00
2019-05-18T20:38:22.293Z,14.90
2019-05-18T20:40:50.693Z,14.80
2019-05-18T20:43:19.089Z,14.80
2019-05-18T20:45:47.481Z,14.70
2019-05-18T20:48:17.021Z,14.70
2019-05-18T20:50:45.985Z,14.70
2019-05-18T20:53:14.436Z,14.60
2019-05-18T20:55:42.821Z,14.60
2019-05-18T20:58:11.221Z,14.70
2019-05-18T21:00:39.631Z,14.60
2019-05-18T21:03:08.041Z,14.60
2019-05-18T21:05:36.429Z,14.60
2019-05-18T21:08:04.965Z,14.60
2019-05-18T21:10:33.372Z,14.60
2019-05-18T21:13:01.776Z,14.60
2019-05-18T21:15:30.161Z,14.60
2019-05-18T21:17:58.578Z,14.60
2019-05-18T21:20:26.973Z,14.50
2019-05-18T21:22:55.378Z,14.40
2019-05-18T21:25:23.827Z,14.40
2019-05-18T21:27:52.214Z,14.30
2019-05-18T21:30:20.688Z,14.30
2019-05-18T21:32:49.081Z,14.40
2019-05-18T21:35:17.489Z,14.50
2019-05-18T21:37:45.896Z,14.60
2019-05-18T21:40:15.222Z,14.70
2019-05-18T21:42:43.638Z,14.80
2019-05-18T21:45:12.867Z,14.70
2019-05-18T21:47:41.270Z,14.70
2019-05-18T21:50:09.813Z,14.70
2019-05-18T21:52:38.217Z,14.60
2019-05-18T21:55:08.154Z,14.70
2019-05-18T21:57:36.556Z,14.70
2019-05-18T22:00:07.517Z,14.70
2019-05-18T22:02:35.977Z,14.80
2019-05-18T22:05:05.825Z,14.80
2019-05-18T22:07:34.214Z,14.90
2019-05-18T22:10:03.668Z,15.10
2019-05-18T22:12:32.064Z,15.00
2019-05-18T22:15:00.802Z,14.90
2019-05-18T22:17:29.258Z,14.80
2019-05-18T22:19:57.641Z,14.70
2019-05-18T22:22:26.048Z,14.70
2019-05-18T22:24:54.454Z,14.60
2019-05-18T22:27:22.849Z,14.50
2019-05-18T22:29:51.245Z,14.50
2019-05-18T22:32:19.659Z,14.50
2019-05-18T22:34:48.051Z,14.50
2019-05-18T22:37:16.446Z,14.50
2019-05-18T22:39:44.929Z,14.60
2019-05-18T22:42:13.333Z,14.70
2019-05-18T22:44:41.722Z,14.70
2019-05-18T22:47:10.128Z,14.60
2019-05-18T22:49:38.531Z,14.60
2019-05-18T22:52:06.925Z,14.50
2019-05-18T22:54:35.415Z,14.50
2019-05-18T22:57:03.795Z,14.50
2019-05-18T22:59:32.194Z,14.40
2019-05-18T23:02:00.611Z,14.40
2019-05-18T23:04:28.996Z,14.30
2019-05-18T23:06:57.406Z,14.30
2019-05-18T23:09:25.816Z,14.30
2019-05-18T23:11:54.220Z,14.20
2019-05-18T23:14:22.614Z,14.20
2019-05-18T23:16:51.005Z,14.20
2019-05-18T23:19:19.411Z,14.10
2019-05-18T23:21:47.801Z,14.00
2019-05-18T23:24:16.194Z,14.00
2019-05-18T23:26:44.610Z,14.00
2019-05-18T23:29:13.016Z,13.90
2019-05-18T23:31:41.398Z,13.90
2019-05-18T23:34:09.797Z,13.90
2019-05-18T23:36:38.198Z,13.90
2019-05-18T23:39:06.668Z,14.00
2019-05-18T23:41:35.214Z,14.00
2019-05-18T23:44:04.469Z,14.00
2019-05-18T23:46:32.858Z,13.90
2019-05-18T23:49:10.359Z,13.80
2019-05-18T23:51:31.390Z,13.80
2019-05-18T23:53:59.786Z,13.80
2019-05-18T23:56:28.180Z,13.80
2019-05-18T23:58:56.571Z,13.70
